Αρχική σελίδα
METAR-TAF:

METAR-TAF

Αεροδρόμια :

Ανταναναρίβο, Μαδαγασκάρη

γεωγραφικό πλάτος: 18-48S, γεωγραφικό μήκος: 047-29E, υψόμετρο: 1279 μ

Παρών καιρός

Η αναφορά έγινε 37 λεπτά πριν, στις 21:00 UTC
Άνεμος 6 kt από Α/NA, μεταβλητός μεταξύ Α και Ν/NA
Θερμοκρασία 11°C
Υγρασία 100%
Πίεση 1023 hPa
Ορατότητα 10 χλμ και άνω
Λίγα νέφη σε ύψος 1700 πόδια
Διάσπαρτα νέφη σε ύψος 2000 πόδια

METAR: FMMI 232100Z 11006KT 100V160 9999 FEW017 SCT020 11/11 Q1023 NOSIG

Χρόνος: 00:37 (21:37 UTC)

Πρόγνωση Καιρού

Η αναφορά έγινε 4 ώρες και 37 λεπτά πριν, στις 17:00 UTC
Η πρόγνωση ισχύει από τις 23 στις 18 UTC έως τις 24 στις 24 UTC
Άνεμος 7 kt από Α/NA
Ορατότητα 10 χλμ και άνω
Διάσπαρτα νέφη σε ύψος 1700 πόδια
Πιθανότητα 30%
από 24 στις 02 UTC έως τις 24 στις 06 UTC
Ορατότητα: 1500 μ
Αρκετά νέφη σε ύψος 600 πόδια
Αχλής

TAF: FMMI 231700Z 2318/2424 12007KT 9999 SCT017 PROB30 2402/2406 1500 BR BKN006

Μετεωρολογικές αναφορές και προγνώσεις για περισσότερα από 4000 αεροδρόμια (δελτία METAR και TAF).

Οι διαθέσιμοι σταθμοί απεικονίζονται στο χάρτη με κίτρινες και κόκκινες κουκκίδες.

Μετακινήστε το ποντίκι πάνω από τις κουκκίδες για να δείτε το όνομα του σταθμού.

Στη συνέχεια, κάντε κλικ για να δείτε τις μετεωρολογικές αναφορές και τις προγνώσεις καιρού.

Για να αλλάξετε το χάρτη: κάντε κλικ στα πράσινα κουμπιά με τον μαύρο σταυρό για να ζουμάρετε, στο πράσινο κουμπί με την παύλα για να αφαιρέσετε το ζουμ ή στα πράσινα βέλη για να αντιπαραβάλλετε χάρτες.


METAR-TAF: